Terminal Aerodrome Forecast
Issued by NWS Detroit/Pontiac, MI

Home | Current Version | Previous Version | Text Only | Print | Product List | Glossary On
Versions: 1 2 3 4 5 6 7 8 9 10 11 12 13 14 15 16 17 18 19 20 21 22
000
FTUS43 KDTX 040117 AAA
TAFFNT
TAF AMD
KFNT 040117Z 0401/0424 10006KT 6SM -SHRA SCT020 BKN040
      TEMPO 0401/0402 5SM TSRA BKN035CB
     FM040200 10006KT P6SM SCT030 BKN040
     FM040400 10005KT 4SM BR SCT030 BKN040
     FM040700 00000KT 3/4SM BR SCT040 BKN250
     FM041300 23003KT 6SM BR BKN035
     FM041600 17007KT P6SM BKN035=

USA.gov is the U.S. government's official web portal to all federal, state and local government web resources and services.